createdAt,value
2023-05-16T00:04:08.572Z,3.70
2023-05-16T00:09:00.403Z,5.03
2023-05-16T00:13:52.503Z,2.85
2023-05-16T00:18:45.666Z,5.05
2023-05-16T00:23:37.556Z,2.92
2023-05-16T00:28:29.257Z,3.90
2023-05-16T00:33:23.388Z,2.10
2023-05-16T00:38:15.018Z,1.23
2023-05-16T00:43:06.667Z,4.35
2023-05-16T00:47:58.425Z,4.85
2023-05-16T00:52:50.359Z,3.03
2023-05-16T00:57:42.222Z,2.33
2023-05-16T01:02:34.954Z,2.28
2023-05-16T01:07:26.660Z,3.70
2023-05-16T01:12:35.613Z,2.83
2023-05-16T01:17:34.579Z,5.18
2023-05-16T01:22:57.852Z,4.60
2023-05-16T01:27:50.017Z,2.30
2023-05-16T01:32:41.723Z,2.33
2023-05-16T01:37:42.870Z,1.52
2023-05-16T01:42:39.544Z,3.65
2023-05-16T01:47:33.444Z,4.80
2023-05-16T01:52:35.012Z,3.92
2023-05-16T01:57:29.067Z,1.42
2023-05-16T02:02:21.218Z,5.18
2023-05-16T02:07:15.099Z,6.60
2023-05-16T02:12:07.008Z,2.60
2023-05-16T02:16:58.798Z,2.85
2023-05-16T02:21:51.266Z,3.05
2023-05-16T02:26:43.246Z,2.40
2023-05-16T02:31:35.533Z,3.38
2023-05-16T02:36:27.748Z,4.72
2023-05-16T02:41:19.614Z,5.45
2023-05-16T02:46:21.742Z,2.83
2023-05-16T02:51:13.310Z,6.07
2023-05-16T02:56:07.496Z,1.88
2023-05-16T03:00:59.853Z,4.10
2023-05-16T03:05:52.003Z,2.45
2023-05-16T03:10:44.261Z,2.90
2023-05-16T03:15:35.992Z,4.13
2023-05-16T03:20:27.544Z,2.58
2023-05-16T03:25:19.185Z,2.88
2023-05-16T03:30:11.583Z,2.88
2023-05-16T03:35:03.576Z,1.55
2023-05-16T03:39:55.264Z,7.70
2023-05-16T03:44:47.446Z,3.92
2023-05-16T03:49:39.039Z,3.85
2023-05-16T03:54:30.796Z,2.22
2023-05-16T03:59:22.470Z,3.67
2023-05-16T04:04:14.443Z,2.78
2023-05-16T04:09:06.776Z,3.22
2023-05-16T04:13:59.772Z,3.70
2023-05-16T04:18:52.258Z,2.90
2023-05-16T04:23:43.913Z,2.60
2023-05-16T04:28:36.010Z,2.08
2023-05-16T04:33:27.658Z,5.57
2023-05-16T04:38:19.218Z,2.40
2023-05-16T04:43:11.148Z,1.63
2023-05-16T04:48:02.841Z,1.98
2023-05-16T04:52:56.423Z,2.70
2023-05-16T04:57:48.161Z,2.70
2023-05-16T05:02:39.831Z,2.80
2023-05-16T05:07:32.693Z,2.80
2023-05-16T05:12:24.962Z,2.22
2023-05-16T05:17:17.485Z,3.70
2023-05-16T05:22:09.075Z,1.70
2023-05-16T05:27:00.698Z,5.35
2023-05-16T05:31:52.335Z,5.18
2023-05-16T05:36:44.542Z,2.63
2023-05-16T05:41:36.830Z,4.00
2023-05-16T05:46:28.779Z,4.55
2023-05-16T05:51:20.592Z,4.15
2023-05-16T05:56:12.238Z,4.70
2023-05-16T06:01:04.221Z,2.60
2023-05-16T06:05:56.029Z,3.83
2023-05-16T06:10:47.806Z,2.10
2023-05-16T06:15:39.464Z,4.82
2023-05-16T06:20:31.000Z,2.88
2023-05-16T06:25:22.736Z,4.07
2023-05-16T06:30:14.400Z,2.65
2023-05-16T06:35:06.181Z,4.63
2023-05-16T06:39:58.053Z,4.25
2023-05-16T06:44:49.652Z,6.25
2023-05-16T06:49:41.238Z,4.63
2023-05-16T06:54:32.978Z,4.13
2023-05-16T06:59:25.206Z,4.65
2023-05-16T07:04:18.563Z,3.60
2023-05-16T07:09:10.160Z,5.38
2023-05-16T07:14:01.838Z,4.25
2023-05-16T07:18:53.703Z,3.05
2023-05-16T07:23:45.312Z,4.43
2023-05-16T07:28:36.923Z,3.70
2023-05-16T07:33:28.706Z,5.53
2023-05-16T07:38:21.451Z,4.13
2023-05-16T07:43:13.044Z,5.47
2023-05-16T07:48:04.783Z,7.70
2023-05-16T07:52:56.442Z,4.35
2023-05-16T07:57:49.406Z,4.75
2023-05-16T08:02:41.641Z,4.38
2023-05-16T08:07:33.774Z,5.53
2023-05-16T08:12:27.078Z,3.80
2023-05-16T08:17:19.029Z,6.90
2023-05-16T08:22:10.829Z,4.90
2023-05-16T08:27:05.450Z,5.20
2023-05-16T08:31:57.356Z,3.78
2023-05-16T08:36:49.225Z,6.35
2023-05-16T08:41:41.367Z,10.50
2023-05-16T08:46:35.696Z,7.70
2023-05-16T08:51:31.543Z,6.55
2023-05-16T08:56:23.763Z,8.20
2023-05-16T09:01:16.691Z,8.57
2023-05-16T09:06:08.605Z,9.35
2023-05-16T09:11:01.949Z,7.45
2023-05-16T09:16:13.786Z,5.20
2023-05-16T09:21:07.601Z,9.05
2023-05-16T09:25:59.848Z,9.75
2023-05-16T09:30:53.065Z,12.27
2023-05-16T09:35:45.827Z,10.15
2023-05-16T09:40:41.640Z,8.50
2023-05-16T09:45:34.494Z,8.30
2023-05-16T09:50:26.187Z,8.27
2023-05-16T09:55:17.916Z,10.27
2023-05-16T10:00:13.373Z,7.32
2023-05-16T10:05:05.799Z,8.18
2023-05-16T10:09:58.286Z,6.18
2023-05-16T10:14:50.596Z,10.35
2023-05-16T10:19:44.126Z,7.25
2023-05-16T10:24:59.180Z,9.90
2023-05-16T10:29:54.604Z,5.35
2023-05-16T10:34:47.013Z,6.15
2023-05-16T10:39:39.921Z,7.20
2023-05-16T10:44:33.991Z,8.98
2023-05-16T10:49:27.345Z,5.45
2023-05-16T10:54:22.784Z,7.18
2023-05-16T10:59:25.313Z,6.00
2023-05-16T11:04:16.929Z,11.00
2023-05-16T11:09:14.435Z,10.25
2023-05-16T11:19:06.930Z,7.90
2023-05-16T11:24:29.020Z,9.45
2023-05-16T11:29:22.310Z,9.95
2023-05-16T11:34:13.962Z,8.50
2023-05-16T11:39:10.211Z,10.82
2023-05-16T11:44:03.244Z,10.60
2023-05-16T11:48:54.901Z,8.07
2023-05-16T11:53:50.226Z,6.97
2023-05-16T11:58:42.615Z,12.40
2023-05-16T12:03:36.186Z,9.18
2023-05-16T12:08:28.416Z,10.10
2023-05-16T12:13:22.788Z,8.15
2023-05-16T12:18:15.899Z,12.52
2023-05-16T12:23:12.702Z,10.50
2023-05-16T12:28:05.167Z,10.60
2023-05-16T12:32:59.932Z,9.98
2023-05-16T12:37:53.218Z,10.27
2023-05-16T12:42:45.306Z,7.70
2023-05-16T12:47:38.346Z,7.22
2023-05-16T12:52:29.987Z,8.65
2023-05-16T12:57:21.647Z,11.30
2023-05-16T13:02:13.234Z,10.20
2023-05-16T13:07:05.861Z,12.40
2023-05-16T13:11:57.432Z,7.70
2023-05-16T13:16:49.022Z,6.28
2023-05-16T13:21:41.637Z,10.55
2023-05-16T13:26:33.304Z,9.90
2023-05-16T13:31:24.952Z,7.28
2023-05-16T13:36:16.634Z,9.00
2023-05-16T13:41:08.226Z,9.02
2023-05-16T13:45:59.968Z,9.63
2023-05-16T13:50:53.344Z,7.20
2023-05-16T13:55:44.933Z,7.38
2023-05-16T14:00:45.214Z,9.80
2023-05-16T14:05:37.637Z,11.70
2023-05-16T14:10:29.413Z,8.18
2023-05-16T14:15:21.446Z,9.80
2023-05-16T14:20:15.488Z,6.43
2023-05-16T14:25:07.604Z,8.70
2023-05-16T14:29:59.765Z,7.95
2023-05-16T14:34:51.420Z,6.50
2023-05-16T14:39:46.594Z,9.43
2023-05-16T14:44:38.601Z,9.55
2023-05-16T14:49:30.681Z,9.10
2023-05-16T14:54:22.378Z,7.32
2023-05-16T14:59:14.456Z,10.35
2023-05-16T15:04:06.195Z,4.75
2023-05-16T15:08:57.853Z,8.13
2023-05-16T15:13:49.679Z,8.38
2023-05-16T15:18:41.721Z,11.02
2023-05-16T15:23:33.464Z,6.07
2023-05-16T15:28:25.059Z,6.07
2023-05-16T15:33:16.839Z,5.97
2023-05-16T15:38:08.800Z,5.13
2023-05-16T15:43:00.401Z,5.72
2023-05-16T15:47:52.096Z,7.15
2023-05-16T15:52:45.119Z,7.20
2023-05-16T15:57:37.033Z,9.48
2023-05-16T16:02:28.750Z,9.05
2023-05-16T16:07:20.537Z,7.40
2023-05-16T16:12:12.255Z,5.40
2023-05-16T16:17:04.940Z,7.63
2023-05-16T16:21:56.851Z,7.65
2023-05-16T16:26:48.516Z,8.20
2023-05-16T16:31:40.280Z,11.38
2023-05-16T16:36:32.457Z,7.57
2023-05-16T16:41:24.075Z,8.02
2023-05-16T16:46:15.850Z,4.75
2023-05-16T16:51:07.527Z,2.50
2023-05-16T16:55:59.339Z,6.18
2023-05-16T17:00:51.538Z,5.75
2023-05-16T17:05:44.603Z,5.00
2023-05-16T17:10:36.224Z,4.85
2023-05-16T17:15:28.143Z,6.20
2023-05-16T17:20:20.137Z,5.65
2023-05-16T17:25:11.846Z,6.22
2023-05-16T17:30:04.781Z,7.80
2023-05-16T17:34:56.906Z,6.43
2023-05-16T17:39:48.509Z,4.35
2023-05-16T17:44:41.218Z,4.18
2023-05-16T17:49:33.181Z,6.20
2023-05-16T17:54:27.281Z,5.72
2023-05-16T17:59:19.134Z,3.75
2023-05-16T18:04:11.000Z,5.55
2023-05-16T18:09:06.535Z,10.65
2023-05-16T18:13:58.277Z,9.38
2023-05-16T18:18:50.060Z,4.25
2023-05-16T18:23:41.849Z,5.57
2023-05-16T18:28:33.570Z,5.60
2023-05-16T18:33:25.387Z,6.22
2023-05-16T18:38:31.438Z,8.57
2023-05-16T18:43:23.466Z,6.70
2023-05-16T18:48:15.330Z,5.18
2023-05-16T18:53:09.662Z,8.25
2023-05-16T18:58:01.619Z,5.28
2023-05-16T19:02:53.686Z,4.57
2023-05-16T19:07:45.888Z,4.35
2023-05-16T19:12:37.586Z,8.25
2023-05-16T19:17:29.214Z,6.72
2023-05-16T19:22:21.092Z,6.63
2023-05-16T19:27:12.888Z,6.50
2023-05-16T19:32:04.849Z,4.47
2023-05-16T19:36:56.602Z,7.25
2023-05-16T19:41:52.170Z,5.82
2023-05-16T19:46:44.164Z,6.15
2023-05-16T19:51:41.876Z,8.63
2023-05-16T19:56:33.941Z,5.97
2023-05-16T20:01:25.977Z,9.13
2023-05-16T20:06:17.574Z,9.43
2023-05-16T20:11:09.151Z,9.88
2023-05-16T20:16:00.788Z,8.95
2023-05-16T20:20:52.510Z,8.13
2023-05-16T20:25:44.076Z,10.23
2023-05-16T20:30:35.849Z,6.45
2023-05-16T20:35:27.791Z,6.65
2023-05-16T20:40:20.297Z,6.00
2023-05-16T20:45:12.186Z,8.57
2023-05-16T20:50:04.028Z,8.77
2023-05-16T20:54:58.152Z,6.82
2023-05-16T20:59:50.184Z,9.90
2023-05-16T21:04:42.151Z,7.50
2023-05-16T21:09:34.095Z,7.72
2023-05-16T21:14:26.204Z,7.50
2023-05-16T21:19:18.317Z,8.35
2023-05-16T21:24:10.330Z,7.18
2023-05-16T21:29:01.996Z,10.02
2023-05-16T21:33:53.630Z,9.00
2023-05-16T21:38:45.441Z,8.48
2023-05-16T21:43:37.179Z,9.27
2023-05-16T21:48:28.866Z,5.10
2023-05-16T21:53:21.473Z,5.90
2023-05-16T21:58:15.215Z,4.72
2023-05-16T22:03:07.143Z,7.03
2023-05-16T22:07:58.770Z,8.85
2023-05-16T22:12:50.436Z,7.45
2023-05-16T22:17:42.237Z,5.28
2023-05-16T22:22:34.298Z,5.82
2023-05-16T22:27:25.929Z,5.32
2023-05-16T22:32:17.536Z,9.23
2023-05-16T22:37:09.850Z,5.18
2023-05-16T22:42:01.712Z,6.30
2023-05-16T22:46:53.408Z,6.28
2023-05-16T22:51:45.782Z,5.13
2023-05-16T22:56:37.431Z,8.27
2023-05-16T23:01:29.330Z,6.47
2023-05-16T23:06:20.975Z,6.05
2023-05-16T23:11:12.731Z,6.22
2023-05-16T23:16:04.501Z,7.32
2023-05-16T23:20:56.160Z,6.10
2023-05-16T23:25:48.738Z,6.68
2023-05-16T23:30:40.916Z,6.45
2023-05-16T23:35:32.670Z,5.07
2023-05-16T23:40:24.298Z,5.47
2023-05-16T23:45:16.513Z,6.15
2023-05-16T23:50:08.519Z,7.78
2023-05-16T23:55:00.097Z,11.57
2023-05-16T23:59:52.134Z,8.00
